Time;durP1;ratioP1;P1;durP2;ratioP2;P2;SDS_P1;SDS_P2;PMS_P1;PMS_P2;Temp;Humidity;BMP_temperature;BMP_pressure;BME280_temperature;BME280_humidity;BME280_pressure;Samples;Min_cycle;Max_cycle;Signal;HPM_P1;HPM_P2
2022/10/16 00:01:36;;;;;;;1.13;1.00;;;13.90;99.90;;;;;;5114144;28;20476;-62
2022/10/16 00:04:04;;;;;;;1.10;1.00;;;14.00;99.90;;;;;;5113901;28;20449;-62
2022/10/16 00:06:31;;;;;;;3.33;1.20;;;14.00;99.90;;;;;;5113998;28;20441;-63
2022/10/16 00:08:59;;;;;;;1.10;0.80;;;14.10;99.90;;;;;;5113909;28;20464;-62
2022/10/16 00:11:28;;;;;;;2.70;1.10;;;14.10;99.90;;;;;;5113468;28;20991;-62
2022/10/16 00:13:59;;;;;;;1.57;0.93;;;14.20;99.90;;;;;;5113747;28;20448;-62
2022/10/16 00:16:26;;;;;;;1.17;0.97;;;14.20;99.90;;;;;;5113380;28;20969;-63
2022/10/16 00:18:53;;;;;;;1.57;0.90;;;14.20;99.90;;;;;;5113405;28;20946;-62
2022/10/16 00:21:22;;;;;;;2.93;1.07;;;14.20;99.90;;;;;;5113023;28;20461;-62
2022/10/16 00:23:51;;;;;;;2.80;1.10;;;14.20;99.90;;;;;;5113567;28;20441;-60
2022/10/16 00:26:20;;;;;;;2.57;1.00;;;14.20;99.90;;;;;;5115745;28;20893;-62
2022/10/16 00:28:48;;;;;;;2.40;1.07;;;14.10;99.90;;;;;;5117935;28;20445;-62
2022/10/16 00:31:15;;;;;;;1.43;0.97;;;14.10;99.90;;;;;;5117423;28;20480;-62
2022/10/16 00:33:42;;;;;;;1.80;1.07;;;14.10;99.90;;;;;;5117530;28;20443;-62
2022/10/16 00:36:12;;;;;;;5.03;1.27;;;14.10;99.90;;;;;;5117346;28;20484;-62
2022/10/16 00:38:39;;;;;;;1.90;1.13;;;14.10;99.90;;;;;;5117485;28;20445;-62
2022/10/16 00:41:06;;;;;;;0.90;0.80;;;14.10;99.90;;;;;;5117416;28;20472;-62
2022/10/16 00:43:37;;;;;;;1.73;0.70;;;14.00;99.90;;;;;;5118025;28;20442;-62
2022/10/16 00:46:06;;;;;;;2.20;0.83;;;14.00;99.90;;;;;;5117379;28;20428;-62
2022/10/16 00:48:33;;;;;;;1.30;0.90;;;14.00;99.90;;;;;;5117350;28;20437;-62
2022/10/16 00:51:00;;;;;;;2.07;0.87;;;14.00;99.90;;;;;;5117024;28;20976;-62
2022/10/16 00:53:28;;;;;;;1.20;0.70;;;14.00;99.90;;;;;;5117395;28;20456;-62
2022/10/16 00:55:55;;;;;;;2.60;0.80;;;14.00;99.90;;;;;;5116818;28;21019;-62
2022/10/16 00:58:22;;;;;;;1.03;0.90;;;14.00;99.90;;;;;;5117134;28;20452;-62
2022/10/16 01:00:50;;;;;;;1.50;1.00;;;14.00;99.90;;;;;;5116935;28;20998;-62
2022/10/16 01:03:26;;;;;;;1.33;1.10;;;13.90;99.90;;;;;;5116969;28;20936;-62
2022/10/16 01:06:07;;;;;;;1.37;1.03;;;13.90;99.90;;;;;;5117341;28;20783;-62
2022/10/16 01:08:44;;;;;;;1.40;1.23;;;13.90;99.90;;;;;;5117134;28;20810;-62
2022/10/16 01:11:20;;;;;;;1.70;1.37;;;13.90;99.90;;;;;;5117231;28;20464;-62
2022/10/16 01:13:54;;;;;;;8.13;1.53;;;14.00;99.90;;;;;;5116992;28;20425;-62
2022/10/16 01:16:30;;;;;;;3.40;1.53;;;14.00;99.90;;;;;;5116816;28;20991;-62
2022/10/16 01:19:05;;;;;;;1.17;1.07;;;14.00;99.90;;;;;;5116813;28;20425;-62
2022/10/16 01:21:35;;;;;;;1.53;1.17;;;14.00;99.90;;;;;;5116870;28;20472;-62
2022/10/16 01:24:08;;;;;;;2.00;1.67;;;14.00;99.90;;;;;;5117645;28;20430;-62
2022/10/16 01:26:53;;;;;;;2.90;1.70;;;14.00;99.90;;;;;;5116858;28;20421;-62
2022/10/16 01:29:24;;;;;;;3.00;1.40;;;13.90;99.90;;;;;;5117723;28;20433;-61
2022/10/16 01:31:59;;;;;;;2.17;1.33;;;13.90;99.90;;;;;;5116692;28;20499;-62
2022/10/16 01:34:36;;;;;;;1.77;1.37;;;13.90;99.90;;;;;;5117157;28;20920;-62
2022/10/16 01:37:08;;;;;;;5.40;2.00;;;13.90;99.90;;;;;;5116200;28;20469;-62
2022/10/16 01:39:39;;;;;;;1.93;1.57;;;13.90;99.90;;;;;;5117369;28;20429;-63
2022/10/16 01:42:12;;;;;;;3.43;1.50;;;13.90;99.90;;;;;;5117743;28;20460;-62
2022/10/16 01:44:42;;;;;;;1.60;1.50;;;13.90;99.90;;;;;;5116945;28;20430;-62
2022/10/16 01:47:11;;;;;;;3.67;1.60;;;13.90;99.90;;;;;;5117539;28;20452;-62
2022/10/16 01:49:41;;;;;;;5.67;1.50;;;13.90;99.90;;;;;;5117278;28;20564;-63
2022/10/16 01:52:15;;;;;;;5.20;1.60;;;13.90;99.90;;;;;;5117065;28;20448;-62
2022/10/16 01:54:44;;;;;;;3.10;1.67;;;13.90;99.90;;;;;;5117022;28;20430;-62
2022/10/16 01:57:13;;;;;;;2.23;1.70;;;13.90;99.90;;;;;;5117624;28;20445;-62
2022/10/16 01:59:45;;;;;;;4.77;1.87;;;13.90;99.90;;;;;;5117884;28;20441;-63
2022/10/16 02:02:14;;;;;;;1.60;1.50;;;13.90;99.90;;;;;;5117937;28;20418;-63
2022/10/16 02:04:46;;;;;;;3.10;1.73;;;13.90;99.90;;;;;;5117564;28;20503;-62
2022/10/16 02:07:13;;;;;;;3.03;1.57;;;13.80;99.90;;;;;;5118316;28;21007;-64
2022/10/16 02:09:41;;;;;;;2.40;1.77;;;13.90;99.90;;;;;;5119093;28;20445;-62
2022/10/16 02:12:14;;;;;;;2.40;1.87;;;13.90;99.90;;;;;;5118402;28;20433;-61
2022/10/16 02:14:42;;;;;;;2.10;1.90;;;13.80;99.90;;;;;;5116157;28;20897;-61
2022/10/16 02:17:13;;;;;;;2.20;1.40;;;13.80;99.90;;;;;;5116227;28;20477;-62
2022/10/16 02:19:41;;;;;;;5.33;1.60;;;13.80;99.90;;;;;;5115788;28;20442;-62
2022/10/16 02:22:11;;;;;;;2.93;1.70;;;13.70;99.90;;;;;;5115521;28;20450;-62
2022/10/16 02:24:44;;;;;;;3.40;1.70;;;13.70;99.90;;;;;;5115408;28;20456;-62
2022/10/16 02:27:17;;;;;;;2.37;1.23;;;13.70;99.90;;;;;;5115996;28;20527;-62
2022/10/16 02:29:50;;;;;;;2.90;1.53;;;13.70;99.90;;;;;;5115682;28;20422;-63
2022/10/16 02:32:20;;;;;;;3.70;1.70;;;13.60;99.90;;;;;;5116181;28;20421;-62
2022/10/16 02:34:49;;;;;;;1.43;1.23;;;13.60;99.90;;;;;;5115270;28;20438;-62
2022/10/16 02:37:17;;;;;;;1.90;1.20;;;13.50;99.90;;;;;;5115141;28;20476;-62
2022/10/16 02:39:43;;;;;;;2.13;1.60;;;13.50;99.90;;;;;;5115596;28;20441;-62
2022/10/16 02:42:11;;;;;;;4.00;2.00;;;13.40;99.90;;;;;;5115295;28;20437;-62
2022/10/16 02:44:38;;;;;;;3.60;1.73;;;13.40;99.90;;;;;;5115313;28;20442;-62
2022/10/16 02:47:06;;;;;;;4.77;1.70;;;13.40;99.90;;;;;;5115268;28;20449;-62
2022/10/16 02:49:33;;;;;;;3.30;2.00;;;13.30;99.90;;;;;;5115016;28;20446;-63
2022/10/16 02:52:00;;;;;;;2.20;2.00;;;13.20;99.90;;;;;;5116112;28;20433;-63
2022/10/16 02:54:26;;;;;;;3.23;2.40;;;13.20;99.90;;;;;;5115543;28;20450;-62
2022/10/16 02:56:53;;;;;;;3.33;2.20;;;13.20;99.90;;;;;;5114932;28;20474;-61
2022/10/16 02:59:20;;;;;;;4.13;2.00;;;13.10;99.90;;;;;;5114900;28;20450;-62
2022/10/16 03:01:47;;;;;;;2.27;2.00;;;13.10;99.90;;;;;;5114659;28;20461;-62
2022/10/16 03:04:15;;;;;;;2.27;2.07;;;13.10;99.90;;;;;;5114752;28;20446;-62
2022/10/16 03:06:41;;;;;;;2.77;1.87;;;13.10;99.90;;;;;;5115449;28;20442;-62
2022/10/16 03:09:08;;;;;;;2.10;1.87;;;13.10;99.90;;;;;;5116705;28;20803;-62
2022/10/16 03:11:35;;;;;;;3.70;2.13;;;13.00;99.90;;;;;;5122939;28;20461;-62
2022/10/16 03:14:02;;;;;;;5.73;1.97;;;13.00;99.90;;;;;;5126842;28;20505;-63
2022/10/16 03:16:29;;;;;;;3.93;2.40;;;12.90;99.90;;;;;;5127956;28;20484;-62
2022/10/16 03:18:55;;;;;;;3.90;2.37;;;12.90;99.90;;;;;;5123708;28;20442;-62
2022/10/16 03:21:23;;;;;;;2.80;2.30;;;12.80;99.90;;;;;;5118009;28;20461;-63
2022/10/16 03:23:50;;;;;;;4.10;2.30;;;12.80;99.90;;;;;;5117405;28;20925;-63
2022/10/16 03:26:17;;;;;;;4.37;2.40;;;12.70;99.90;;;;;;5115987;28;20438;-62
2022/10/16 03:28:44;;;;;;;3.87;2.17;;;12.70;99.90;;;;;;5114940;28;20949;-62
2022/10/16 03:31:10;;;;;;;2.17;1.97;;;12.70;99.90;;;;;;5130458;22;20480;-62
2022/10/16 03:33:37;;;;;;;3.97;2.20;;;12.70;99.90;;;;;;5114458;28;20448;-62
2022/10/16 03:36:04;;;;;;;2.70;2.40;;;12.70;99.90;;;;;;5115436;28;20477;-63
2022/10/16 03:38:32;;;;;;;3.67;2.73;;;12.70;99.90;;;;;;5114960;28;20445;-63
2022/10/16 03:40:59;;;;;;;7.60;2.83;;;12.70;99.90;;;;;;5113750;28;20469;-63
2022/10/16 03:43:26;;;;;;;5.50;2.53;;;12.70;99.90;;;;;;5114219;28;20437;-63
2022/10/16 03:45:53;;;;;;;4.90;2.50;;;12.70;99.90;;;;;;5114141;28;20453;-63
2022/10/16 03:48:19;;;;;;;4.50;2.17;;;12.70;99.90;;;;;;5114230;28;20437;-63
2022/10/16 03:50:48;;;;;;;2.90;2.60;;;12.70;99.90;;;;;;5113716;28;20462;-63
2022/10/16 03:53:14;;;;;;;5.30;2.77;;;12.60;99.90;;;;;;5113441;28;20532;-63
2022/10/16 03:55:44;;;;;;;2.67;2.07;;;12.60;99.90;;;;;;5114126;28;20441;-63
2022/10/16 03:58:11;;;;;;;3.50;2.40;;;12.60;99.90;;;;;;5113572;28;20956;-63
2022/10/16 04:00:41;;;;;;;2.83;2.40;;;12.50;99.90;;;;;;5113406;28;20549;-62
2022/10/16 04:03:08;;;;;;;3.03;2.47;;;12.50;99.90;;;;;;5114521;28;20464;-62
2022/10/16 04:05:35;;;;;;;4.87;2.93;;;12.50;99.90;;;;;;5115176;28;20463;-63
2022/10/16 04:10:22;;;;;;;3.67;2.47;;;12.40;99.90;;;;;;5146089;27;145215;-64
2022/10/16 04:12:49;;;;;;;5.97;2.60;;;12.30;99.90;;;;;;5152737;27;20444;-64
2022/10/16 04:15:16;;;;;;;3.50;2.70;;;12.30;99.90;;;;;;5153098;27;20531;-65
2022/10/16 04:17:43;;;;;;;5.83;2.77;;;12.30;99.90;;;;;;5153340;27;20435;-62
2022/10/16 04:20:10;;;;;;;4.83;2.70;;;12.30;99.90;;;;;;5153835;27;20990;-63
2022/10/16 04:22:37;;;;;;;3.73;2.90;;;12.30;99.90;;;;;;5153599;27;20439;-62
2022/10/16 04:25:04;;;;;;;3.97;2.80;;;12.30;99.90;;;;;;5154052;27;20911;-63
2022/10/16 04:27:32;;;;;;;4.77;2.60;;;12.30;99.90;;;;;;5154190;27;20939;-62
2022/10/16 04:29:59;;;;;;;4.17;2.67;;;12.30;99.90;;;;;;5153834;27;20477;-62
2022/10/16 04:32:26;;;;;;;4.60;2.23;;;12.30;99.90;;;;;;5154465;27;20439;-62
2022/10/16 04:34:54;;;;;;;3.40;3.10;;;12.30;99.90;;;;;;5153074;27;20442;-63
2022/10/16 04:37:24;;;;;;;3.07;2.77;;;12.30;99.90;;;;;;5152339;27;20926;-63
2022/10/16 04:39:51;;;;;;;3.50;2.90;;;12.30;99.90;;;;;;5153774;27;20432;-64
2022/10/16 04:42:18;;;;;;;2.87;2.57;;;12.40;99.90;;;;;;5153349;27;20443;-61
2022/10/16 04:44:46;;;;;;;3.57;3.00;;;12.40;99.90;;;;;;5152180;27;20443;-63
2022/10/16 04:47:14;;;;;;;3.57;2.63;;;12.40;99.90;;;;;;5153168;27;20534;-65
2022/10/16 04:49:41;;;;;;;3.93;3.27;;;12.30;99.90;;;;;;5151796;27;20467;-62
2022/10/16 04:52:09;;;;;;;3.37;2.43;;;12.30;99.90;;;;;;5152271;27;20479;-62
2022/10/16 04:54:36;;;;;;;4.73;2.93;;;12.30;99.90;;;;;;5152755;27;20900;-62
2022/10/16 04:57:04;;;;;;;3.50;3.00;;;12.30;99.90;;;;;;5152787;27;20452;-64
2022/10/16 04:59:31;;;;;;;2.87;2.40;;;12.30;99.90;;;;;;5151854;27;20534;-63
2022/10/16 05:01:59;;;;;;;8.70;3.37;;;12.30;99.90;;;;;;5151723;27;20464;-63
2022/10/16 05:04:26;;;;;;;8.17;3.60;;;12.30;99.90;;;;;;5151787;27;20966;-64
2022/10/16 05:06:53;;;;;;;4.77;3.33;;;12.40;99.90;;;;;;5152217;27;20450;-62
2022/10/16 05:09:20;;;;;;;4.37;3.00;;;12.40;99.90;;;;;;5153240;27;20486;-63
2022/10/16 05:11:47;;;;;;;3.10;2.77;;;12.40;99.90;;;;;;5153579;27;20468;-63
2022/10/16 05:14:14;;;;;;;4.00;3.00;;;12.50;99.90;;;;;;5154391;27;20450;-64
2022/10/16 05:16:41;;;;;;;3.97;3.00;;;12.50;99.90;;;;;;5153836;27;20450;-64
2022/10/16 05:19:10;;;;;;;3.67;2.73;;;12.60;99.90;;;;;;5152714;27;21029;-63
2022/10/16 05:21:37;;;;;;;3.00;2.53;;;12.70;99.90;;;;;;5139912;27;20554;-63
2022/10/16 05:24:04;;;;;;;4.00;3.40;;;12.70;99.90;;;;;;5139110;27;20820;-62
2022/10/16 05:26:30;;;;;;;3.43;2.93;;;12.70;99.90;;;;;;5138537;27;20963;-63
2022/10/16 05:28:57;;;;;;;3.47;3.13;;;12.70;99.90;;;;;;5138596;27;20472;-64
2022/10/16 05:31:24;;;;;;;4.97;3.43;;;12.70;99.90;;;;;;5138241;27;20999;-63
2022/10/16 05:33:51;;;;;;;4.40;3.10;;;12.70;99.90;;;;;;5138735;27;20812;-64
2022/10/16 05:36:19;;;;;;;3.40;2.87;;;12.70;99.90;;;;;;5138538;27;20493;-63
2022/10/16 05:38:46;;;;;;;3.80;3.27;;;12.70;99.90;;;;;;5137857;27;20956;-63
2022/10/16 05:41:13;;;;;;;4.43;2.90;;;12.70;99.90;;;;;;5138799;27;20500;-64
2022/10/16 05:43:40;;;;;;;3.77;3.10;;;12.70;99.90;;;;;;5138081;27;20479;-62
2022/10/16 05:46:07;;;;;;;3.30;2.87;;;12.70;99.90;;;;;;5137353;27;20455;-64
2022/10/16 05:48:34;;;;;;;4.10;3.27;;;12.70;99.90;;;;;;5139114;27;20471;-64
2022/10/16 05:51:03;;;;;;;5.10;2.70;;;12.70;99.90;;;;;;5139005;27;20496;-62
2022/10/16 05:53:33;;;;;;;4.30;3.10;;;12.70;99.90;;;;;;5139809;27;20441;-64
2022/10/16 05:56:01;;;;;;;4.30;3.90;;;12.60;99.90;;;;;;5138063;27;20447;-64
2022/10/16 05:58:31;;;;;;;6.97;3.97;;;12.60;99.90;;;;;;5139000;27;20473;-62
2022/10/16 06:01:00;;;;;;;3.90;3.20;;;12.60;99.90;;;;;;5138482;27;20468;-62
2022/10/16 06:03:27;;;;;;;6.30;3.67;;;12.60;99.90;;;;;;5137323;27;20445;-61
2022/10/16 06:05:54;;;;;;;4.20;3.37;;;12.60;99.90;;;;;;5138732;27;20466;-64
2022/10/16 06:08:23;;;;;;;4.10;3.33;;;12.60;99.90;;;;;;5138290;27;20455;-64
2022/10/16 06:11:01;;;;;;;3.83;3.00;;;12.60;99.90;;;;;;5137769;27;20476;-62
2022/10/16 06:13:28;;;;;;;3.53;3.23;;;12.70;99.90;;;;;;5137928;27;20432;-64
2022/10/16 06:15:58;;;;;;;3.47;2.87;;;12.70;99.90;;;;;;5137959;27;20790;-64
2022/10/16 06:18:25;;;;;;;3.73;2.80;;;12.70;99.90;;;;;;5138563;27;20528;-64
2022/10/16 06:20:52;;;;;;;4.83;2.70;;;12.80;99.90;;;;;;5138502;27;20464;-64
2022/10/16 06:23:19;;;;;;;3.13;2.83;;;12.80;99.90;;;;;;5136989;27;20451;-63
2022/10/16 06:25:46;;;;;;;3.57;2.60;;;12.90;99.90;;;;;;5137301;27;20429;-64
2022/10/16 06:28:14;;;;;;;3.07;2.23;;;13.00;99.90;;;;;;5137605;27;20441;-64
2022/10/16 06:30:43;;;;;;;6.60;2.20;;;13.10;99.90;;;;;;5137395;27;20490;-65
2022/10/16 06:33:10;;;;;;;2.67;2.47;;;13.20;99.90;;;;;;5136492;27;20497;-64
2022/10/16 06:35:37;;;;;;;3.63;2.43;;;13.30;99.90;;;;;;5138409;27;20936;-64
2022/10/16 06:38:04;;;;;;;3.10;2.17;;;13.30;99.90;;;;;;5137541;27;20517;-63
2022/10/16 06:40:31;;;;;;;3.73;2.33;;;13.40;99.90;;;;;;5136945;27;20529;-63
2022/10/16 06:42:58;;;;;;;2.40;2.20;;;13.50;99.90;;;;;;5136426;27;20493;-64
2022/10/16 06:45:26;;;;;;;4.53;2.10;;;13.60;99.90;;;;;;5137352;27;20861;-64
2022/10/16 06:47:53;;;;;;;3.30;2.70;;;13.70;99.90;;;;;;5136898;27;20452;-63
2022/10/16 06:50:20;;;;;;;3.30;2.30;;;13.80;99.90;;;;;;5137234;27;20487;-65
2022/10/16 06:52:47;;;;;;;4.70;2.67;;;13.90;99.90;;;;;;5137240;27;20527;-64
2022/10/16 06:55:14;;;;;;;4.33;2.70;;;14.00;99.90;;;;;;5137342;27;20958;-64
2022/10/16 06:57:41;;;;;;;2.40;2.17;;;14.20;99.90;;;;;;5137715;27;20449;-64
2022/10/16 07:00:09;;;;;;;2.43;2.23;;;14.30;99.90;;;;;;5137499;27;20521;-64
2022/10/16 07:02:37;;;;;;;3.60;2.60;;;14.50;99.90;;;;;;5136758;27;20440;-63
2022/10/16 07:05:05;;;;;;;2.90;2.20;;;14.70;99.90;;;;;;5137348;27;20772;-64
2022/10/16 07:07:31;;;;;;;2.43;2.07;;;14.90;99.90;;;;;;5136531;27;20489;-63
2022/10/16 07:09:58;;;;;;;2.30;2.10;;;15.00;99.90;;;;;;5136884;27;20484;-64
2022/10/16 07:12:25;;;;;;;4.50;3.30;;;15.00;99.90;;;;;;5136979;27;20847;-63
2022/10/16 07:14:54;;;;;;;3.43;2.07;;;15.10;99.90;;;;;;5137245;27;20961;-65
2022/10/16 07:17:21;;;;;;;3.83;2.30;;;15.20;99.90;;;;;;5136663;27;20444;-64
2022/10/16 07:19:52;;;;;;;3.63;2.33;;;15.30;99.90;;;;;;5137038;27;20447;-63
2022/10/16 07:22:19;;;;;;;2.27;2.07;;;15.30;99.90;;;;;;5136714;27;20826;-64
2022/10/16 07:24:46;;;;;;;2.57;1.67;;;15.30;99.90;;;;;;5136703;27;20933;-63
2022/10/16 07:27:13;;;;;;;2.20;1.93;;;15.30;99.90;;;;;;5136837;27;20440;-64
2022/10/16 07:29:40;;;;;;;1.70;1.60;;;15.30;99.90;;;;;;5136663;27;20514;-65
2022/10/16 07:32:07;;;;;;;2.53;2.33;;;15.30;99.90;;;;;;5135982;27;20464;-64
2022/10/16 07:34:34;;;;;;;2.77;2.10;;;15.40;99.90;;;;;;5135369;27;20452;-64
2022/10/16 07:37:02;;;;;;;3.87;1.80;;;15.60;99.90;;;;;;5135600;27;20446;-65
2022/10/16 07:39:28;;;;;;;1.90;1.70;;;15.60;99.90;;;;;;5135615;27;20468;-65
2022/10/16 07:41:55;;;;;;;3.50;2.40;;;15.80;99.90;;;;;;5135753;27;20456;-64
2022/10/16 07:44:22;;;;;;;2.80;1.80;;;16.00;99.90;;;;;;5135461;27;20493;-63
2022/10/16 07:46:49;;;;;;;2.03;1.83;;;16.20;99.90;;;;;;5135689;27;20508;-65
2022/10/16 07:49:16;;;;;;;1.50;1.23;;;16.40;99.90;;;;;;5136107;27;20444;-65
2022/10/16 07:51:43;;;;;;;2.27;1.33;;;16.60;99.90;;;;;;5136462;27;20500;-64
2022/10/16 07:54:15;;;;;;;1.93;1.50;;;16.70;99.90;;;;;;5136011;27;20500;-64
2022/10/16 07:56:41;;;;;;;2.60;1.70;;;16.80;99.90;;;;;;5135834;27;20432;-63
2022/10/16 07:59:08;;;;;;;2.40;1.43;;;16.90;99.90;;;;;;5135301;27;20888;-64
2022/10/16 08:01:35;;;;;;;1.80;1.53;;;17.10;99.90;;;;;;5134826;27;20532;-64
2022/10/16 08:04:02;;;;;;;2.23;1.33;;;17.20;99.90;;;;;;5135669;27;20448;-64
2022/10/16 08:06:29;;;;;;;1.60;1.30;;;17.30;99.90;;;;;;5135390;28;20817;-63
2022/10/16 08:08:56;;;;;;;1.83;1.63;;;17.50;99.90;;;;;;5135432;28;20822;-63
2022/10/16 08:11:24;;;;;;;3.60;1.60;;;17.70;99.90;;;;;;5135453;27;21066;-64
2022/10/16 08:13:51;;;;;;;4.23;1.63;;;17.70;99.90;;;;;;5135545;28;20440;-64
2022/10/16 08:16:18;;;;;;;1.77;1.67;;;17.80;99.90;;;;;;5136004;28;20440;-64
2022/10/16 08:18:45;;;;;;;2.60;1.90;;;17.90;99.90;;;;;;5136645;28;20449;-64
2022/10/16 08:21:15;;;;;;;2.70;2.07;;;18.00;99.90;;;;;;5135502;27;20913;-62
2022/10/16 08:23:43;;;;;;;2.23;1.40;;;18.00;99.90;;;;;;5135723;28;20435;-63
2022/10/16 08:26:10;;;;;;;2.03;1.73;;;18.00;99.90;;;;;;5136326;28;20913;-63
2022/10/16 08:28:38;;;;;;;2.40;1.43;;;17.90;99.90;;;;;;5135545;28;20443;-64
2022/10/16 08:31:10;;;;;;;1.40;1.30;;;17.80;99.90;;;;;;5134800;27;20492;-63
2022/10/16 08:33:37;;;;;;;2.43;1.53;;;17.60;99.90;;;;;;5135580;28;20528;-61
2022/10/16 08:36:06;;;;;;;1.60;1.37;;;17.50;99.90;;;;;;5135259;28;20523;-63
2022/10/16 08:38:33;;;;;;;1.40;1.27;;;17.40;99.90;;;;;;5135348;28;20936;-63
2022/10/16 08:41:20;;;;;;;1.90;1.30;;;17.30;99.90;;;;;;5135750;27;20507;-64
2022/10/16 08:44:09;;;;;;;1.33;1.10;;;17.30;99.90;;;;;;5136128;28;20432;-63
2022/10/16 08:46:46;;;;;;;4.40;1.70;;;17.20;99.90;;;;;;5136355;28;20485;-62
2022/10/16 08:49:15;;;;;;;2.63;1.00;;;17.20;99.90;;;;;;5135802;28;20798;-62
2022/10/16 08:51:42;;;;;;;1.77;1.20;;;17.30;99.90;;;;;;5135986;27;20904;-63
2022/10/16 08:54:22;;;;;;;1.63;1.10;;;17.20;99.90;;;;;;5135303;28;20523;-65
2022/10/16 08:56:49;;;;;;;1.30;1.10;;;17.20;99.90;;;;;;5139672;27;20440;-63
2022/10/16 08:59:19;;;;;;;2.23;0.90;;;17.20;99.90;;;;;;5139084;27;20453;-64
2022/10/16 09:01:47;;;;;;;3.33;1.30;;;17.30;99.90;;;;;;5139440;27;20456;-63
2022/10/16 09:04:49;;;;;;;1.17;0.90;;;17.40;99.90;;;;;;5138492;27;20447;-63
2022/10/16 09:07:22;;;;;;;3.30;1.03;;;17.50;99.60;;;;;;5138642;27;20443;-63
2022/10/16 09:10:02;;;;;;;3.77;1.00;;;17.50;99.20;;;;;;5138113;27;21014;-63
2022/10/16 09:12:38;;;;;;;1.43;1.13;;;17.60;99.20;;;;;;5140144;27;20467;-64
2022/10/16 09:15:17;;;;;;;1.50;0.90;;;17.60;98.90;;;;;;5140945;27;20425;-62
2022/10/16 09:17:53;;;;;;;1.30;1.20;;;17.70;98.40;;;;;;5140399;27;20433;-64
2022/10/16 09:20:39;;;;;;;2.93;0.90;;;17.70;98.00;;;;;;5140864;27;20471;-64
2022/10/16 09:23:16;;;;;;;2.50;1.10;;;17.80;97.80;;;;;;5139781;27;20452;-64
2022/10/16 09:25:47;;;;;;;1.43;1.20;;;17.80;97.50;;;;;;5139663;27;20425;-64
2022/10/16 09:28:14;;;;;;;1.30;1.20;;;17.90;97.30;;;;;;5138865;27;20421;-62
2022/10/16 09:30:42;;;;;;;2.53;1.30;;;17.90;97.00;;;;;;5145169;22;20496;-62
2022/10/16 09:33:10;;;;;;;1.17;1.07;;;17.90;96.80;;;;;;5096052;28;20803;-62
2022/10/16 09:35:40;;;;;;;2.60;1.10;;;18.00;96.70;;;;;;5096432;28;20453;-61
2022/10/16 09:38:08;;;;;;;1.10;0.80;;;18.00;96.40;;;;;;5095982;28;20443;-61
2022/10/16 09:40:37;;;;;;;1.43;1.17;;;18.10;96.20;;;;;;5096379;28;20901;-61
2022/10/16 09:43:16;;;;;;;2.63;1.30;;;18.10;96.10;;;;;;5095868;28;20442;-61
2022/10/16 09:45:55;;;;;;;1.17;0.90;;;18.20;95.80;;;;;;5096587;28;20430;-62
2022/10/16 09:48:22;;;;;;;1.73;1.10;;;18.30;95.60;;;;;;5096891;28;20805;-62
2022/10/16 09:50:57;;;;;;;1.60;0.90;;;18.30;95.20;;;;;;5096580;28;20482;-60
2022/10/16 09:53:24;;;;;;;3.60;0.83;;;18.40;95.10;;;;;;5096863;28;20426;-61
2022/10/16 09:55:51;;;;;;;1.40;1.00;;;18.40;94.70;;;;;;5096064;28;20438;-62
2022/10/16 09:58:18;;;;;;;3.73;1.23;;;18.50;94.40;;;;;;5097336;28;20945;-61
2022/10/16 10:00:53;;;;;;;2.87;1.10;;;18.60;94.10;;;;;;5096100;28;20466;-61
2022/10/16 10:03:35;;;;;;;3.30;1.10;;;18.60;93.60;;;;;;5096273;28;20905;-60
2022/10/16 10:06:15;;;;;;;4.37;1.30;;;18.70;93.00;;;;;;5096250;28;20422;-62
2022/10/16 10:08:41;;;;;;;2.20;1.20;;;18.80;92.50;;;;;;5095829;28;20438;-62
2022/10/16 10:11:08;;;;;;;2.90;0.97;;;18.80;92.00;;;;;;5095940;28;20485;-63
2022/10/16 10:13:35;;;;;;;1.60;1.13;;;18.90;91.60;;;;;;5095731;28;20814;-60
2022/10/16 10:16:03;;;;;;;1.77;1.10;;;19.00;90.50;;;;;;5095729;28;20815;-63
2022/10/16 10:18:31;;;;;;;1.63;1.20;;;19.10;90.00;;;;;;5096294;28;20777;-61
2022/10/16 10:20:59;;;;;;;2.53;1.00;;;19.20;88.70;;;;;;5095369;28;20468;-62
2022/10/16 10:23:29;;;;;;;2.70;1.60;;;19.20;87.10;;;;;;5095895;28;20446;-62
2022/10/16 10:26:03;;;;;;;2.03;1.17;;;19.30;86.40;;;;;;5095547;28;20446;-62
2022/10/16 10:28:48;;;;;;;1.93;1.10;;;19.40;85.20;;;;;;5095635;28;20537;-63
2022/10/16 10:31:24;;;;;;;1.53;1.20;;;19.50;83.90;;;;;;5094939;28;20486;-64
2022/10/16 10:33:58;;;;;;;4.40;0.90;;;19.50;82.10;;;;;;5096297;28;20450;-61
2022/10/16 10:36:41;;;;;;;1.53;1.00;;;19.40;80.50;;;;;;5095703;28;20422;-62
2022/10/16 10:39:14;;;;;;;1.17;0.97;;;19.40;79.30;;;;;;5095573;28;20427;-62
2022/10/16 10:42:10;;;;;;;2.23;1.20;;;19.30;78.50;;;;;;5095778;28;20461;-62
2022/10/16 10:44:53;;;;;;;4.33;0.90;;;19.20;77.60;;;;;;5095518;28;20441;-62
2022/10/16 10:47:30;;;;;;;2.03;1.23;;;19.20;77.70;;;;;;5095801;28;20768;-62
2022/10/16 10:50:07;;;;;;;2.73;1.03;;;19.10;78.00;;;;;;5096014;28;20434;-61
2022/10/16 10:52:52;;;;;;;1.73;1.00;;;19.20;78.10;;;;;;5095153;28;20450;-61
2022/10/16 10:55:29;;;;;;;2.10;1.40;;;19.30;77.40;;;;;;5095341;28;20427;-61
2022/10/16 10:58:21;;;;;;;3.57;1.30;;;19.30;76.70;;;;;;5096710;28;20444;-62
2022/10/16 11:00:55;;;;;;;2.87;1.30;;;19.20;76.40;;;;;;5095542;28;20464;-62
2022/10/16 11:03:40;;;;;;;1.47;0.80;;;18.90;76.10;;;;;;5094763;28;20437;-60
2022/10/16 11:06:11;;;;;;;1.73;0.73;;;18.70;76.70;;;;;;5095296;28;20427;-61
2022/10/16 11:08:42;;;;;;;2.60;1.20;;;18.50;77.00;;;;;;5095468;28;20506;-61
2022/10/16 11:11:16;;;;;;;1.73;1.60;;;18.40;77.60;;;;;;5094288;28;20510;-61
2022/10/16 11:13:52;;;;;;;3.53;1.27;;;18.40;78.20;;;;;;5094224;28;20446;-61
2022/10/16 11:16:24;;;;;;;2.60;1.27;;;18.60;78.50;;;;;;5094554;28;20430;-61
2022/10/16 11:18:59;;;;;;;6.60;1.60;;;18.70;77.90;;;;;;5093772;28;21078;-62
2022/10/16 11:21:30;;;;;;;1.43;1.03;;;18.90;77.50;;;;;;5093733;28;20469;-61
2022/10/16 11:24:02;;;;;;;1.47;0.90;;;19.10;76.80;;;;;;5093859;28;20446;-62
2022/10/16 11:26:35;;;;;;;1.40;1.00;;;19.30;76.30;;;;;;5094159;28;20430;-61
2022/10/16 11:29:04;;;;;;;2.17;0.90;;;19.40;75.70;;;;;;5093674;28;20440;-61
2022/10/16 11:31:38;;;;;;;1.30;0.90;;;19.60;74.80;;;;;;5093785;28;20487;-61
2022/10/16 11:34:16;;;;;;;2.73;1.10;;;19.70;73.90;;;;;;5094538;28;20514;-62
2022/10/16 11:36:47;;;;;;;1.30;0.80;;;19.90;73.10;;;;;;5094832;28;20426;-62
2022/10/16 11:39:21;;;;;;;1.77;0.80;;;20.00;71.20;;;;;;5095780;28;20968;-60
2022/10/16 11:41:51;;;;;;;2.60;1.07;;;19.90;70.80;;;;;;5095022;28;20469;-62
2022/10/16 11:44:35;;;;;;;2.67;1.00;;;19.90;70.90;;;;;;5094188;28;20944;-62
2022/10/16 11:47:13;;;;;;;2.00;1.10;;;20.00;71.00;;;;;;5094060;28;20797;-62
2022/10/16 11:49:42;;;;;;;1.90;0.80;;;20.00;70.50;;;;;;5094703;28;20532;-63
2022/10/16 11:52:17;;;;;;;3.70;1.27;;;20.00;70.40;;;;;;5095880;28;20486;-62
2022/10/16 11:54:50;;;;;;;2.70;1.37;;;20.00;70.20;;;;;;5095165;28;20511;-61
2022/10/16 11:57:21;;;;;;;1.60;0.93;;;20.10;69.90;;;;;;5095333;28;20438;-62
2022/10/16 11:59:52;;;;;;;1.80;0.90;;;20.10;69.70;;;;;;5095685;28;20428;-61
2022/10/16 12:02:36;;;;;;;1.03;0.90;;;20.00;68.70;;;;;;5095071;28;20466;-62
2022/10/16 12:05:15;;;;;;;1.40;0.80;;;20.00;68.40;;;;;;5096674;28;20423;-62
2022/10/16 12:07:51;;;;;;;1.17;0.63;;;19.90;68.40;;;;;;5096126;28;20429;-61
2022/10/16 12:10:22;;;;;;;1.53;0.70;;;19.80;68.40;;;;;;5095309;28;20432;-62
2022/10/16 12:12:48;;;;;;;1.40;0.90;;;19.80;68.60;;;;;;5097005;28;20459;-62
2022/10/16 12:15:24;;;;;;;2.30;1.00;;;19.70;68.60;;;;;;5096260;28;20448;-62
2022/10/16 12:17:52;;;;;;;1.50;0.83;;;19.70;68.90;;;;;;5095891;28;20464;-61
2022/10/16 12:20:30;;;;;;;2.77;0.90;;;19.80;69.00;;;;;;5097887;28;20956;-62
2022/10/16 12:22:59;;;;;;;2.30;0.90;;;19.80;68.30;;;;;;5096996;28;20971;-63
2022/10/16 12:25:29;;;;;;;1.70;0.70;;;19.80;68.40;;;;;;5096848;28;20441;-61
2022/10/16 12:27:58;;;;;;;1.37;0.83;;;20.00;68.20;;;;;;5095730;28;20439;-60
2022/10/16 12:30:27;;;;;;;1.87;0.90;;;20.10;67.70;;;;;;5095186;28;20921;-61
2022/10/16 12:32:56;;;;;;;3.83;1.10;;;20.30;67.40;;;;;;5098385;28;20473;-61
2022/10/16 12:35:27;;;;;;;0.90;0.53;;;20.40;66.70;;;;;;5098614;28;20435;-62
2022/10/16 12:37:54;;;;;;;1.20;0.70;;;20.40;65.30;;;;;;5097910;28;20450;-63
2022/10/16 12:40:30;;;;;;;2.60;0.70;;;20.30;64.70;;;;;;5097268;28;20435;-62
2022/10/16 12:42:57;;;;;;;1.10;0.80;;;20.20;65.00;;;;;;5096995;28;20450;-61
2022/10/16 12:45:30;;;;;;;2.30;1.90;;;20.20;64.80;;;;;;5096872;28;20934;-61
2022/10/16 12:47:58;;;;;;;2.10;0.70;;;20.10;64.70;;;;;;5097015;28;20457;-61
2022/10/16 12:50:36;;;;;;;4.93;0.60;;;20.00;64.70;;;;;;5096797;28;20953;-62
2022/10/16 12:53:04;;;;;;;1.67;0.80;;;20.00;64.90;;;;;;5097286;28;20422;-60
2022/10/16 12:55:43;;;;;;;2.40;0.90;;;19.90;64.80;;;;;;5096866;28;20450;-61
2022/10/16 12:58:21;;;;;;;2.80;1.00;;;19.80;65.00;;;;;;5097064;28;20483;-62
2022/10/16 13:00:57;;;;;;;1.07;0.87;;;19.80;65.10;;;;;;5097064;28;20458;-62
2022/10/16 13:03:40;;;;;;;1.87;0.80;;;19.80;65.00;;;;;;5097428;28;20417;-62
2022/10/16 13:06:19;;;;;;;1.30;0.70;;;19.80;64.90;;;;;;5096732;28;20426;-62